Time;durP1;ratioP1;P1;durP2;ratioP2;P2;SDS_P1;SDS_P2;PMS_P1;PMS_P2;Temp;Humidity;BMP_temperature;BMP_pressure;BME280_temperature;BME280_humidity;BME280_pressure;Samples;Min_cycle;Max_cycle;Signal;HPM_P1;HPM_P2
2022/06/17 00:01:42;;;;;;;12.32;8.35;;;15.30;99.90;;;;;;5025631;28;20145;-84
2022/06/17 00:04:08;;;;;;;11.88;8.25;;;15.30;99.90;;;;;;5025476;28;20105;-84
2022/06/17 00:06:46;;;;;;;13.60;8.43;;;15.30;99.90;;;;;;5021322;28;20057;-83
2022/06/17 00:09:13;;;;;;;16.23;8.75;;;15.30;99.90;;;;;;5027154;28;20049;-84
2022/06/17 00:11:39;;;;;;;13.30;8.25;;;15.40;99.90;;;;;;5025523;28;20049;-84
2022/06/17 00:14:17;;;;;;;11.32;8.30;;;15.30;99.90;;;;;;5025420;28;20137;-84
2022/06/17 00:16:44;;;;;;;11.30;8.38;;;15.40;99.90;;;;;;5023509;28;20084;-84
2022/06/17 00:19:10;;;;;;;11.98;8.90;;;15.30;99.90;;;;;;5023928;28;20477;-84
2022/06/17 00:21:39;;;;;;;14.52;9.82;;;15.10;99.90;;;;;;5017478;28;20061;-84
2022/06/17 00:24:20;;;;;;;11.30;8.68;;;15.20;99.90;;;;;;5022471;28;20064;-84
2022/06/17 00:26:48;;;;;;;11.63;8.90;;;15.20;99.90;;;;;;5023197;28;20536;-84
2022/06/17 00:29:17;;;;;;;12.93;10.07;;;15.10;99.90;;;;;;5025436;28;20037;-84
2022/06/17 00:31:44;;;;;;;14.10;9.93;;;15.20;99.90;;;;;;5027499;28;20064;-84
2022/06/17 00:34:09;;;;;;;12.25;9.23;;;15.20;99.90;;;;;;5023172;28;20046;-84
2022/06/17 00:36:38;;;;;;;14.45;10.15;;;15.20;99.90;;;;;;5020881;28;20637;-83
2022/06/17 00:39:15;;;;;;;10.93;9.57;;;15.30;99.90;;;;;;5024905;28;20041;-83
2022/06/17 00:41:44;;;;;;;14.15;9.35;;;15.20;99.90;;;;;;5023500;28;20527;-84
2022/06/17 00:44:48;;;;;;;13.63;9.98;;;15.30;99.90;;;;;;5026742;28;20052;-85
2022/06/17 00:47:38;;;;;;;14.55;10.10;;;15.20;99.90;;;;;;5011753;28;20060;-84
2022/06/17 00:50:15;;;;;;;14.73;10.65;;;15.20;99.90;;;;;;5023351;28;20083;-84
2022/06/17 00:53:01;;;;;;;14.25;10.57;;;15.20;99.90;;;;;;5013461;28;20124;-84
2022/06/17 00:55:35;;;;;;;14.23;11.18;;;15.20;99.90;;;;;;5002118;28;20058;-84
2022/06/17 00:58:11;;;;;;;16.88;12.00;;;15.20;99.90;;;;;;5003752;28;20081;-85
2022/06/17 01:00:37;;;;;;;16.50;11.25;;;15.10;99.90;;;;;;5020111;28;20049;-85
2022/06/17 01:03:08;;;;;;;15.23;11.82;;;15.20;99.90;;;;;;5024731;28;20034;-84
2022/06/17 01:05:54;;;;;;;16.92;12.68;;;15.10;99.90;;;;;;5023000;28;20045;-84
2022/06/17 01:11:25;;;;;;;17.70;10.85;;;15.10;99.90;;;;;;5084854;28;20049;-83
2022/06/17 01:13:51;;;;;;;14.40;10.50;;;15.10;99.90;;;;;;5028528;27;20485;-84
2022/06/17 01:16:22;;;;;;;17.17;10.95;;;15.00;99.90;;;;;;5000496;28;20041;-84
2022/06/17 01:18:50;;;;;;;13.73;11.20;;;15.10;99.90;;;;;;5007975;28;20045;-84
2022/06/17 01:21:30;;;;;;;15.40;11.00;;;15.10;99.90;;;;;;5001437;28;20807;-84
2022/06/17 01:23:59;;;;;;;15.63;11.35;;;15.10;99.90;;;;;;5017774;28;20045;-84
2022/06/17 01:26:28;;;;;;;16.35;11.13;;;15.10;99.90;;;;;;5023298;28;20041;-84
2022/06/17 01:28:56;;;;;;;20.25;11.88;;;15.20;99.90;;;;;;5007828;28;20053;-83
2022/06/17 01:31:22;;;;;;;18.52;11.07;;;15.10;99.90;;;;;;5018380;28;20034;-84
2022/06/17 01:33:48;;;;;;;15.07;11.38;;;15.10;99.90;;;;;;5008239;28;20103;-83
2022/06/17 01:36:20;;;;;;;15.60;10.55;;;15.10;99.90;;;;;;5004819;28;20041;-83
2022/06/17 01:38:51;;;;;;;13.75;9.93;;;15.10;99.90;;;;;;5019873;28;20476;-83
2022/06/17 01:41:22;;;;;;;21.27;11.38;;;15.10;99.90;;;;;;5025079;28;20114;-84
2022/06/17 01:44:05;;;;;;;19.15;11.93;;;15.10;99.90;;;;;;5022063;28;20777;-83
2022/06/17 01:46:40;;;;;;;16.98;10.70;;;15.10;99.90;;;;;;5024355;28;20054;-83
2022/06/17 01:49:25;;;;;;;14.23;10.40;;;15.00;99.90;;;;;;4982251;28;20045;-83
2022/06/17 01:52:01;;;;;;;19.45;11.52;;;15.00;99.90;;;;;;5005938;28;20057;-84
2022/06/17 01:54:30;;;;;;;16.20;11.10;;;15.00;99.90;;;;;;5004031;28;20477;-83
2022/06/17 01:57:00;;;;;;;14.35;10.57;;;15.00;99.90;;;;;;5011712;28;20048;-84
2022/06/17 01:59:43;;;;;;;14.13;11.07;;;15.00;99.90;;;;;;5023415;27;20433;-84
2022/06/17 02:02:13;;;;;;;14.93;11.20;;;15.00;99.90;;;;;;4998460;28;20136;-83
2022/06/17 02:04:43;;;;;;;13.23;11.10;;;15.00;99.90;;;;;;5021898;28;20405;-83
2022/06/17 02:07:23;;;;;;;14.07;10.67;;;15.10;99.90;;;;;;5004381;28;20054;-84
2022/06/17 02:09:49;;;;;;;12.55;10.45;;;15.00;99.90;;;;;;5026227;28;20052;-83
2022/06/17 02:12:18;;;;;;;14.85;11.30;;;15.00;99.90;;;;;;5024181;28;20151;-83
2022/06/17 02:14:45;;;;;;;18.02;10.82;;;15.10;99.90;;;;;;5008224;28;20409;-84
2022/06/17 02:17:11;;;;;;;18.35;11.50;;;15.00;99.90;;;;;;5022685;28;20037;-84
2022/06/17 02:19:43;;;;;;;13.20;10.25;;;15.00;99.90;;;;;;5021677;28;20040;-83
2022/06/17 02:22:24;;;;;;;13.95;11.35;;;15.00;99.90;;;;;;5000814;28;20061;-83
2022/06/17 02:24:59;;;;;;;14.77;11.52;;;15.00;99.90;;;;;;5025122;28;20033;-83
2022/06/17 02:27:27;;;;;;;17.75;11.23;;;14.90;99.90;;;;;;5024556;28;20049;-83
2022/06/17 02:29:54;;;;;;;13.10;10.75;;;15.10;99.90;;;;;;5023692;28;20037;-83
2022/06/17 02:32:20;;;;;;;15.75;9.98;;;14.90;99.90;;;;;;5020494;28;20484;-83
2022/06/17 02:34:55;;;;;;;17.67;9.95;;;14.90;99.90;;;;;;5006356;28;20405;-83
2022/06/17 02:37:23;;;;;;;16.10;11.23;;;14.90;99.90;;;;;;5006037;28;20572;-83
2022/06/17 02:39:51;;;;;;;15.15;10.43;;;14.90;99.90;;;;;;5026715;28;20116;-83
2022/06/17 02:42:26;;;;;;;14.45;11.05;;;14.90;99.90;;;;;;5007500;28;20128;-84
2022/06/17 02:44:58;;;;;;;15.70;11.13;;;14.80;99.90;;;;;;5020540;28;20037;-84
2022/06/17 02:47:25;;;;;;;14.05;11.00;;;14.80;99.90;;;;;;5023549;28;20056;-83
2022/06/17 02:49:52;;;;;;;15.90;10.95;;;14.80;99.90;;;;;;5022990;28;20125;-84
2022/06/17 02:52:23;;;;;;;16.90;11.82;;;14.80;99.90;;;;;;5006950;28;20417;-83
2022/06/17 02:54:59;;;;;;;12.75;10.25;;;14.80;99.90;;;;;;5024727;28;20053;-83
2022/06/17 02:57:30;;;;;;;13.75;10.65;;;14.80;99.90;;;;;;5013971;28;20046;-83
2022/06/17 03:00:07;;;;;;;14.15;11.63;;;14.70;99.90;;;;;;5015605;28;20081;-83
2022/06/17 03:02:38;;;;;;;17.55;10.95;;;14.70;99.90;;;;;;5018577;28;20054;-83
2022/06/17 03:05:14;;;;;;;14.20;11.52;;;14.70;99.90;;;;;;5022677;28;20095;-83
2022/06/17 03:07:39;;;;;;;19.08;10.65;;;14.80;99.90;;;;;;5023846;28;20081;-84
2022/06/17 03:10:14;;;;;;;15.65;10.55;;;14.70;99.90;;;;;;5028360;28;20079;-84
2022/06/17 03:12:44;;;;;;;15.35;11.68;;;14.70;99.90;;;;;;5027568;28;20133;-83
2022/06/17 03:15:13;;;;;;;14.15;10.55;;;14.70;99.90;;;;;;5023683;28;20049;-83
2022/06/17 03:17:41;;;;;;;15.70;11.57;;;14.70;99.90;;;;;;5029058;28;20515;-83
2022/06/17 03:20:21;;;;;;;13.23;11.32;;;14.70;99.90;;;;;;5025391;28;20049;-83
2022/06/17 03:22:56;;;;;;;15.75;11.73;;;14.80;99.90;;;;;;5021789;28;20386;-84
2022/06/17 03:25:44;;;;;;;15.75;12.00;;;14.70;99.90;;;;;;5022749;28;20076;-83
2022/06/17 03:28:14;;;;;;;15.23;11.55;;;14.70;99.90;;;;;;5017319;28;20063;-84
2022/06/17 03:30:54;;;;;;;14.07;10.13;;;14.70;99.90;;;;;;5025726;28;20049;-83
2022/06/17 03:33:32;;;;;;;14.55;11.43;;;14.80;99.90;;;;;;5025183;28;20084;-82
2022/06/17 03:36:01;;;;;;;13.32;11.25;;;14.80;99.90;;;;;;5026337;28;20053;-83
2022/06/17 03:38:45;;;;;;;15.10;10.80;;;14.80;99.90;;;;;;5022734;28;20049;-84
2022/06/17 03:41:21;;;;;;;13.60;11.65;;;14.80;99.90;;;;;;5026143;28;20072;-83
2022/06/17 03:43:54;;;;;;;16.35;11.27;;;14.90;99.90;;;;;;5026847;28;20049;-84
2022/06/17 03:46:22;;;;;;;15.45;10.48;;;14.90;99.90;;;;;;5027443;28;20053;-83
2022/06/17 03:49:12;;;;;;;15.93;10.55;;;14.90;99.90;;;;;;5024132;28;20045;-84
2022/06/17 03:51:41;;;;;;;15.05;10.43;;;14.90;99.90;;;;;;5023549;28;20084;-83
2022/06/17 03:54:14;;;;;;;13.90;9.15;;;14.90;99.90;;;;;;5022815;28;20049;-83
2022/06/17 03:56:42;;;;;;;13.25;9.43;;;14.90;99.90;;;;;;5022897;28;20095;-82
2022/06/17 03:59:15;;;;;;;12.35;9.38;;;14.90;99.90;;;;;;5027134;28;20042;-83
2022/06/17 04:02:02;;;;;;;13.30;9.40;;;15.10;99.90;;;;;;5022283;28;20052;-83
2022/06/17 04:04:34;;;;;;;15.00;9.25;;;15.00;99.90;;;;;;5024448;28;20676;-83
2022/06/17 04:07:00;;;;;;;10.15;7.72;;;15.00;99.90;;;;;;5022343;28;20034;-83
2022/06/17 04:09:31;;;;;;;11.30;8.45;;;15.00;99.90;;;;;;5023351;28;20120;-83
2022/06/17 04:12:05;;;;;;;11.15;7.95;;;15.10;99.90;;;;;;5024474;28;20045;-83
2022/06/17 04:14:35;;;;;;;;;;;15.10;99.90;;;;;;5023025;28;20046;-81
2022/06/17 04:17:09;;;;;;;13.63;8.30;;;15.10;99.90;;;;;;5023566;28;19986;-82
2022/06/17 04:19:34;;;;;;;13.75;8.32;;;15.00;99.90;;;;;;5022630;28;20057;-81
2022/06/17 04:22:11;;;;;;;13.02;8.48;;;15.10;99.90;;;;;;5022348;28;20068;-83
2022/06/17 04:24:37;;;;;;;13.52;8.70;;;15.10;99.90;;;;;;5022014;28;20453;-81
2022/06/17 04:27:05;;;;;;;10.90;8.43;;;15.20;99.90;;;;;;5026795;28;20042;-81
2022/06/17 04:29:39;;;;;;;14.65;8.50;;;15.20;99.90;;;;;;5023028;28;20053;-80
2022/06/17 04:32:14;;;;;;;11.18;7.78;;;15.20;99.90;;;;;;5008602;28;20048;-81
2022/06/17 04:34:40;;;;;;;9.23;7.35;;;15.20;99.90;;;;;;5025514;28;20057;-82
2022/06/17 04:37:12;;;;;;;8.85;6.35;;;15.20;99.90;;;;;;5025136;28;20040;-82
2022/06/17 04:39:48;;;;;;;11.48;6.43;;;15.20;99.90;;;;;;5025610;28;20146;-82
2022/06/17 04:42:33;;;;;;;8.18;5.63;;;15.20;99.90;;;;;;5021755;28;20048;-81
2022/06/17 04:44:58;;;;;;;8.25;6.05;;;15.30;99.90;;;;;;5025619;28;20041;-82
2022/06/17 04:47:24;;;;;;;8.38;5.88;;;15.30;99.90;;;;;;5024760;28;20064;-81
2022/06/17 04:50:02;;;;;;;8.50;6.30;;;15.30;99.90;;;;;;5026329;28;20078;-82
2022/06/17 04:52:32;;;;;;;9.10;5.93;;;15.40;99.90;;;;;;5023507;28;20103;-81
2022/06/17 04:54:59;;;;;;;11.48;5.53;;;15.50;99.90;;;;;;5021849;28;20653;-82
2022/06/17 04:57:27;;;;;;;9.55;5.47;;;15.40;99.90;;;;;;5023768;28;20078;-84
2022/06/17 04:59:55;;;;;;;8.60;5.30;;;15.40;99.90;;;;;;5024436;28;20133;-82
2022/06/17 05:02:39;;;;;;;7.95;5.05;;;15.50;99.90;;;;;;5016709;28;20057;-81
2022/06/17 05:05:08;;;;;;;8.45;4.80;;;15.50;99.90;;;;;;5019603;28;20041;-87
2022/06/17 05:07:43;;;;;;;8.25;5.25;;;15.50;99.90;;;;;;5022977;28;20590;-82
2022/06/17 05:10:29;;;;;;;11.27;5.15;;;15.60;99.90;;;;;;5024543;28;20038;-82
2022/06/17 05:13:10;;;;;;;9.88;6.03;;;15.60;99.90;;;;;;5023376;28;20417;-83
2022/06/17 05:15:37;;;;;;;7.80;5.40;;;15.70;99.90;;;;;;5025750;28;20118;-82
2022/06/17 05:18:09;;;;;;;6.95;4.78;;;15.60;99.90;;;;;;5020659;28;20448;-83
2022/06/17 05:20:35;;;;;;;6.93;5.28;;;15.70;99.90;;;;;;5026963;28;20041;-81
2022/06/17 05:23:05;;;;;;;6.93;4.05;;;15.80;99.90;;;;;;5024130;28;20515;-83
2022/06/17 05:25:39;;;;;;;8.10;4.38;;;15.80;99.90;;;;;;5012953;28;20116;-82
2022/06/17 05:28:07;;;;;;;10.88;4.15;;;15.80;99.90;;;;;;5024426;28;20044;-84
2022/06/17 05:30:37;;;;;;;9.90;4.63;;;15.80;99.90;;;;;;5022136;28;20053;-83
2022/06/17 05:33:03;;;;;;;6.05;4.18;;;15.80;99.90;;;;;;5025481;28;20045;-85
2022/06/17 05:35:32;;;;;;;9.82;4.90;;;15.90;99.90;;;;;;5021677;28;20053;-81
2022/06/17 05:37:58;;;;;;;8.18;3.97;;;16.00;99.90;;;;;;5016862;28;20057;-82
2022/06/17 05:40:26;;;;;;;8.05;4.47;;;15.90;99.90;;;;;;5006448;28;20041;-81
2022/06/17 05:42:52;;;;;;;17.52;6.20;;;16.10;99.90;;;;;;5018118;28;20395;-81
2022/06/17 05:45:25;;;;;;;12.43;4.75;;;16.00;99.90;;;;;;5039234;28;20118;-81
2022/06/17 05:47:53;;;;;;;11.57;4.93;;;16.00;99.90;;;;;;5022219;28;20626;-81
2022/06/17 05:50:20;;;;;;;15.13;4.32;;;16.10;99.90;;;;;;5010759;28;20202;-82
2022/06/17 05:52:52;;;;;;;14.27;4.80;;;16.10;99.90;;;;;;5013593;28;20054;-82
2022/06/17 05:55:18;;;;;;;7.75;4.22;;;16.20;99.90;;;;;;5014045;28;20462;-83
2022/06/17 05:57:44;;;;;;;11.00;4.63;;;16.20;99.90;;;;;;5019723;28;20052;-83
2022/06/17 06:00:13;;;;;;;7.95;4.78;;;16.30;99.90;;;;;;5022342;28;20627;-82
2022/06/17 06:02:39;;;;;;;19.30;5.65;;;16.30;99.90;;;;;;5023058;28;20046;-82
2022/06/17 06:05:05;;;;;;;13.27;4.95;;;16.40;99.90;;;;;;5023392;28;20076;-80
2022/06/17 06:07:31;;;;;;;9.57;5.00;;;16.40;99.90;;;;;;5022698;28;20046;-72
2022/06/17 06:09:57;;;;;;;8.07;4.72;;;16.50;99.90;;;;;;5025146;28;20040;-72
2022/06/17 06:12:22;;;;;;;7.97;4.43;;;16.40;99.90;;;;;;5022694;28;20042;-72
2022/06/17 06:14:48;;;;;;;14.25;4.90;;;16.50;99.90;;;;;;5025610;28;20045;-72
2022/06/17 06:17:13;;;;;;;8.77;4.53;;;16.50;99.90;;;;;;5020647;28;20041;-72
2022/06/17 06:19:39;;;;;;;9.02;4.78;;;16.60;99.90;;;;;;5022946;28;20045;-72
2022/06/17 06:22:05;;;;;;;10.75;5.10;;;16.60;99.90;;;;;;5014573;28;20120;-72
2022/06/17 06:24:30;;;;;;;10.63;5.45;;;16.70;99.90;;;;;;5018249;28;20049;-73
2022/06/17 06:26:56;;;;;;;11.43;5.43;;;16.70;99.90;;;;;;5024881;28;20094;-72
2022/06/17 06:29:22;;;;;;;8.30;4.53;;;16.70;99.90;;;;;;5019996;28;20048;-73
2022/06/17 06:31:48;;;;;;;9.95;4.90;;;16.80;99.90;;;;;;5023094;28;20037;-71
2022/06/17 06:34:15;;;;;;;13.07;5.65;;;16.90;99.90;;;;;;5021654;28;20554;-73
2022/06/17 06:36:42;;;;;;;10.27;5.22;;;16.90;99.90;;;;;;5023942;28;20050;-72
2022/06/17 06:39:13;;;;;;;17.33;5.20;;;16.90;99.90;;;;;;5026018;28;20405;-72
2022/06/17 06:41:39;;;;;;;14.40;5.57;;;17.00;99.90;;;;;;5018923;28;20213;-73
2022/06/17 06:44:04;;;;;;;10.73;4.57;;;17.10;99.90;;;;;;5020769;28;20658;-72
2022/06/17 06:46:35;;;;;;;14.50;5.10;;;17.10;99.90;;;;;;5023531;28;20231;-72
2022/06/17 06:49:01;;;;;;;10.05;5.20;;;17.20;99.90;;;;;;5024956;28;20072;-71
2022/06/17 06:51:26;;;;;;;10.57;5.03;;;17.30;99.90;;;;;;5023137;28;20434;-72
2022/06/17 06:53:52;;;;;;;8.38;4.70;;;17.30;99.90;;;;;;5022058;28;20124;-73
2022/06/17 06:56:18;;;;;;;10.05;5.30;;;17.40;99.90;;;;;;5021984;28;20052;-73
2022/06/17 06:58:43;;;;;;;10.80;5.80;;;17.50;99.90;;;;;;5020311;28;20040;-73
2022/06/17 07:01:09;;;;;;;9.93;5.30;;;17.60;99.90;;;;;;5019653;28;21947;-72
2022/06/17 07:03:35;;;;;;;9.02;5.40;;;17.60;99.90;;;;;;5022216;28;20052;-73
2022/06/17 07:06:04;;;;;;;9.02;5.45;;;17.60;99.90;;;;;;5023283;28;20038;-73
2022/06/17 07:08:32;;;;;;;11.85;4.95;;;17.80;99.90;;;;;;5016857;28;20065;-72
2022/06/17 07:10:59;;;;;;;9.63;5.20;;;17.80;99.90;;;;;;5021292;28;20455;-72
2022/06/17 07:13:29;;;;;;;14.05;5.22;;;17.90;99.90;;;;;;5021133;28;20098;-73
2022/06/17 07:15:56;;;;;;;10.48;5.63;;;18.00;99.90;;;;;;5019402;28;20042;-72
2022/06/17 07:18:27;;;;;;;12.13;5.32;;;18.10;99.90;;;;;;5019759;28;20046;-73
2022/06/17 07:20:56;;;;;;;11.10;5.00;;;18.10;99.90;;;;;;5024284;28;20057;-72
2022/06/17 07:23:33;;;;;;;13.25;4.95;;;18.20;99.90;;;;;;5023832;28;20124;-73
2022/06/17 07:26:05;;;;;;;14.18;5.13;;;18.20;99.90;;;;;;5025572;28;20564;-74
2022/06/17 07:28:31;;;;;;;12.45;5.22;;;18.30;99.90;;;;;;5022426;28;20057;-73
2022/06/17 07:30:59;;;;;;;12.00;4.45;;;18.30;99.90;;;;;;5010537;28;20034;-74
2022/06/17 07:33:28;;;;;;;9.60;4.90;;;18.40;99.90;;;;;;5024505;28;20037;-75
2022/06/17 07:35:57;;;;;;;7.15;5.00;;;18.50;99.90;;;;;;5024199;28;20116;-74
2022/06/17 07:41:13;;;;;;;13.50;5.00;;;18.70;99.90;;;;;;5019803;28;20041;-74
2022/06/17 07:43:42;;;;;;;12.45;5.60;;;18.80;99.90;;;;;;5027882;28;20070;-74
2022/06/17 07:46:08;;;;;;;9.98;4.28;;;18.80;99.90;;;;;;5020881;28;20045;-74
2022/06/17 07:48:40;;;;;;;15.55;4.65;;;18.90;99.90;;;;;;5020953;28;20045;-74
2022/06/17 07:51:07;;;;;;;12.98;4.28;;;19.00;99.90;;;;;;5023746;28;20046;-74
2022/06/17 07:53:35;;;;;;;10.98;4.95;;;19.20;99.90;;;;;;5016758;28;20092;-75
2022/06/17 07:56:02;;;;;;;6.30;4.28;;;19.10;99.90;;;;;;5040307;28;20044;-75
2022/06/17 07:58:28;;;;;;;9.30;4.78;;;19.30;99.90;;;;;;5009797;28;20069;-74
2022/06/17 08:00:55;;;;;;;10.13;4.60;;;19.40;99.90;;;;;;5026368;28;20033;-76
2022/06/17 08:03:21;;;;;;;8.15;4.80;;;19.40;99.90;;;;;;5024848;28;20049;-76
2022/06/17 08:05:52;;;;;;;10.13;4.65;;;19.60;99.90;;;;;;5025794;28;20037;-75
2022/06/17 08:08:22;;;;;;;11.65;4.53;;;19.60;99.90;;;;;;5024919;28;20072;-77
2022/06/17 08:10:55;;;;;;;8.68;4.75;;;19.70;99.90;;;;;;5009034;28;20049;-77
2022/06/17 08:13:21;;;;;;;11.05;4.40;;;19.80;99.90;;;;;;5011224;28;20067;-77
2022/06/17 08:15:49;;;;;;;7.78;4.43;;;19.90;99.90;;;;;;5007293;28;20037;-77
2022/06/17 08:18:15;;;;;;;7.78;4.32;;;19.90;99.90;;;;;;5021465;28;20448;-76
2022/06/17 08:20:43;;;;;;;8.15;4.20;;;20.00;99.90;;;;;;5002065;28;20053;-76
2022/06/17 08:23:10;;;;;;;7.85;4.22;;;20.10;99.80;;;;;;5023617;28;20401;-76
2022/06/17 08:25:37;;;;;;;8.85;4.78;;;20.10;99.90;;;;;;5007246;28;20057;-75
2022/06/17 08:28:06;;;;;;;9.05;4.30;;;20.20;99.70;;;;;;5026780;28;20046;-76
2022/06/17 08:30:39;;;;;;;12.35;4.15;;;20.30;99.40;;;;;;5065654;27;20075;-76
2022/06/17 08:33:07;;;;;;;9.85;4.75;;;20.30;99.30;;;;;;5023121;28;20042;-76
2022/06/17 08:35:36;;;;;;;8.77;4.03;;;20.40;99.10;;;;;;5027886;28;20048;-76
2022/06/17 08:38:24;;;;;;;7.40;4.20;;;20.50;98.80;;;;;;5008609;28;20098;-76
2022/06/17 08:41:08;;;;;;;10.52;4.78;;;20.60;98.80;;;;;;5025634;28;20041;-76
2022/06/17 08:44:11;;;;;;;9.18;4.57;;;20.60;98.60;;;;;;5006464;28;20561;-75
2022/06/17 08:46:49;;;;;;;10.05;4.57;;;20.80;98.40;;;;;;5025573;28;20053;-74
2022/06/17 08:49:47;;;;;;;8.32;4.05;;;20.80;97.70;;;;;;5026886;28;20155;-77
2022/06/17 08:52:29;;;;;;;10.52;4.75;;;20.90;97.60;;;;;;5005018;28;20101;-76
2022/06/17 08:55:35;;;;;;;8.82;4.70;;;20.90;97.40;;;;;;5020869;28;20064;-76
2022/06/17 08:58:42;;;;;;;15.02;4.78;;;21.00;97.40;;;;;;5033122;28;20050;-75
2022/06/17 09:01:20;;;;;;;11.38;3.85;;;21.00;96.90;;;;;;4964913;28;20556;-74
2022/06/17 09:04:09;;;;;;;7.78;4.57;;;21.00;96.90;;;;;;4950823;28;20197;-74
2022/06/17 09:06:43;;;;;;;10.55;4.30;;;21.10;96.70;;;;;;4999559;28;20519;-74
2022/06/17 09:09:21;;;;;;;5.78;3.70;;;21.10;96.80;;;;;;5025179;28;20037;-75
2022/06/17 09:11:55;;;;;;;5.65;3.65;;;21.10;97.10;;;;;;5018116;27;20061;-73
2022/06/17 09:14:44;;;;;;;9.05;4.00;;;21.20;97.30;;;;;;5015455;28;20099;-72
2022/06/17 09:17:37;;;;;;;9.65;4.53;;;21.30;96.90;;;;;;5026773;28;20053;-72
2022/06/17 09:20:11;;;;;;;11.18;4.43;;;21.30;96.70;;;;;;5023975;28;20103;-75
2022/06/17 09:22:43;;;;;;;10.48;4.05;;;21.30;96.60;;;;;;5024199;28;20049;-73
2022/06/17 09:25:14;;;;;;;11.77;5.22;;;21.40;96.40;;;;;;5026600;28;20049;-74
2022/06/17 09:27:44;;;;;;;9.50;4.85;;;21.40;96.40;;;;;;5023682;28;20042;-73
2022/06/17 09:30:22;;;;;;;17.63;4.97;;;21.50;96.10;;;;;;5022928;28;20072;-73
2022/06/17 09:33:16;;;;;;;8.40;4.65;;;21.50;96.00;;;;;;5023821;28;20120;-74
2022/06/17 09:35:48;;;;;;;9.45;5.22;;;21.60;95.80;;;;;;5012266;28;20053;-73
2022/06/17 09:38:20;;;;;;;8.45;4.85;;;21.50;95.40;;;;;;5024442;28;20045;-74
2022/06/17 09:41:08;;;;;;;13.52;5.05;;;21.60;95.20;;;;;;5020072;28;20392;-73
2022/06/17 09:43:40;;;;;;;7.63;4.75;;;21.60;95.10;;;;;;5020923;28;20452;-74
2022/06/17 09:46:09;;;;;;;10.38;4.90;;;21.70;95.10;;;;;;5025377;28;20037;-75
2022/06/17 09:48:41;;;;;;;11.82;4.95;;;21.90;95.30;;;;;;5022265;28;20045;-74
2022/06/17 09:51:28;;;;;;;11.00;4.82;;;22.10;94.90;;;;;;5023256;28;20041;-73
2022/06/17 09:54:27;;;;;;;7.22;4.60;;;22.20;95.10;;;;;;5019360;28;20152;-78
2022/06/17 09:57:15;;;;;;;6.65;4.00;;;22.30;95.00;;;;;;5012258;28;20088;-78
2022/06/17 09:59:56;;;;;;;8.15;4.47;;;22.40;95.00;;;;;;5014742;28;20438;-76
2022/06/17 10:02:34;;;;;;;11.18;4.68;;;22.50;94.20;;;;;;5019609;28;20042;-78
2022/06/17 10:05:17;;;;;;;8.95;4.43;;;22.50;93.70;;;;;;5023240;28;20477;-73
2022/06/17 10:08:18;;;;;;;12.45;5.35;;;22.50;93.40;;;;;;5017402;28;20045;-78
2022/06/17 10:11:04;;;;;;;8.27;3.83;;;22.50;93.00;;;;;;5015518;28;20116;-78
2022/06/17 10:14:03;;;;;;;7.28;4.00;;;22.50;93.00;;;;;;5022962;28;20118;-73
2022/06/17 10:20:06;;;;;;;9.15;4.05;;;22.50;93.10;;;;;;5018627;28;20041;-74
2022/06/17 10:22:51;;;;;;;8.68;4.50;;;22.50;93.10;;;;;;5008710;28;20049;-73
2022/06/17 10:25:42;;;;;;;9.15;4.03;;;22.50;92.80;;;;;;5021507;28;20041;-74
2022/06/17 10:28:13;;;;;;;12.23;3.70;;;22.50;92.90;;;;;;5026128;28;20049;-73
2022/06/17 10:31:05;;;;;;;10.63;3.38;;;22.50;93.00;;;;;;5022992;28;20049;-73
2022/06/17 10:33:33;;;;;;;11.60;4.53;;;22.50;92.60;;;;;;5017518;28;20187;-73
2022/06/17 10:36:00;;;;;;;7.28;3.28;;;22.50;91.90;;;;;;5024065;28;20212;-73
2022/06/17 10:38:36;;;;;;;6.75;3.42;;;22.50;91.30;;;;;;5015807;28;20053;-73
2022/06/17 10:41:02;;;;;;;5.82;3.47;;;22.50;91.20;;;;;;5023084;28;20416;-73
2022/06/17 10:43:45;;;;;;;6.20;3.38;;;22.50;91.30;;;;;;5023624;28;20034;-74
2022/06/17 10:46:17;;;;;;;10.80;3.72;;;22.60;91.70;;;;;;5020179;28;20064;-73
2022/06/17 10:48:52;;;;;;;7.63;3.60;;;22.70;91.60;;;;;;5012153;28;20134;-73
2022/06/17 10:51:19;;;;;;;9.98;3.55;;;22.70;91.70;;;;;;5011949;28;20444;-74
2022/06/17 10:53:46;;;;;;;7.43;3.17;;;22.80;91.90;;;;;;5021506;28;20444;-73
2022/06/17 10:56:27;;;;;;;7.32;2.83;;;22.90;91.60;;;;;;5022661;28;20045;-73
2022/06/17 10:58:56;;;;;;;7.93;3.33;;;23.00;91.10;;;;;;5024055;28;20046;-75
2022/06/17 11:01:22;;;;;;;9.00;3.30;;;23.10;90.80;;;;;;5022021;28;20041;-73
2022/06/17 11:03:50;;;;;;;6.18;3.55;;;23.10;90.50;;;;;;5020633;28;20037;-73
2022/06/17 11:06:22;;;;;;;8.32;3.30;;;23.20;90.00;;;;;;5006016;28;20053;-73
2022/06/17 11:08:55;;;;;;;5.78;3.78;;;23.30;89.90;;;;;;5008311;28;20507;-74
2022/06/17 11:14:30;;;;;;;11.40;3.63;;;23.50;88.80;;;;;;5023362;28;20306;-73
2022/06/17 11:16:56;;;;;;;6.28;3.58;;;23.50;87.60;;;;;;5021244;28;20068;-73
2022/06/17 11:19:24;;;;;;;10.13;4.05;;;23.60;86.90;;;;;;5024708;28;20037;-73
2022/06/17 11:21:54;;;;;;;7.57;3.67;;;23.70;86.50;;;;;;5017785;28;20473;-73
2022/06/17 11:24:34;;;;;;;6.60;3.30;;;23.80;85.80;;;;;;5020066;28;20469;-73
2022/06/17 11:27:07;;;;;;;8.43;4.15;;;23.90;86.20;;;;;;5021632;28;20377;-74
2022/06/17 11:29:42;;;;;;;8.30;4.45;;;24.00;84.70;;;;;;5021281;28;20377;-74
2022/06/17 11:32:20;;;;;;;14.13;4.50;;;24.00;84.10;;;;;;5020104;28;20133;-73
2022/06/17 11:34:58;;;;;;;7.82;3.90;;;24.10;84.10;;;;;;5019522;28;20056;-73
2022/06/17 11:37:33;;;;;;;8.20;3.85;;;24.10;84.00;;;;;;5021414;28;20045;-73
2022/06/17 11:40:13;;;;;;;11.50;3.67;;;24.20;85.00;;;;;;5021742;28;20049;-74
2022/06/17 11:42:59;;;;;;;7.28;4.05;;;24.30;84.30;;;;;;5024596;28;20543;-72
2022/06/17 11:45:37;;;;;;;7.28;3.83;;;24.40;84.20;;;;;;5025103;28;20384;-74
2022/06/17 11:48:15;;;;;;;9.05;4.00;;;24.50;84.10;;;;;;5026868;28;20103;-73
2022/06/17 11:51:01;;;;;;;10.48;4.35;;;24.70;84.00;;;;;;5026211;28;20544;-73
2022/06/17 11:53:31;;;;;;;9.55;5.13;;;24.70;82.60;;;;;;5021193;28;20074;-74
2022/06/17 11:55:58;;;;;;;8.90;4.15;;;24.80;82.10;;;;;;5019663;28;20045;-75
2022/06/17 11:58:24;;;;;;;11.50;4.60;;;24.90;80.90;;;;;;5023273;28;20042;-74
2022/06/17 12:00:55;;;;;;;8.48;4.10;;;25.10;79.50;;;;;;5024937;28;20523;-73
2022/06/17 12:03:33;;;;;;;12.50;4.45;;;25.10;79.20;;;;;;5019525;28;20331;-74
2022/06/17 12:06:05;;;;;;;8.82;4.88;;;25.30;80.20;;;;;;5023888;28;20053;-74
2022/06/17 12:08:48;;;;;;;10.00;4.38;;;25.30;78.70;;;;;;5022771;28;20104;-74
2022/06/17 12:11:23;;;;;;;8.63;3.72;;;25.40;77.30;;;;;;5022931;28;20509;-75
2022/06/17 12:13:57;;;;;;;8.77;4.25;;;25.40;76.80;;;;;;5024217;28;20363;-78
2022/06/17 12:16:38;;;;;;;10.27;4.40;;;25.30;76.50;;;;;;5022006;28;20041;-80
2022/06/17 12:19:09;;;;;;;9.90;3.90;;;25.40;75.60;;;;;;5025757;28;20042;-74
2022/06/17 12:21:54;;;;;;;14.52;5.22;;;25.40;75.00;;;;;;5026073;28;20045;-74
2022/06/17 12:24:33;;;;;;;10.48;3.97;;;25.40;75.50;;;;;;5019871;28;20421;-74
2022/06/17 12:27:22;;;;;;;9.52;3.38;;;25.50;75.50;;;;;;5023246;28;20037;-74
2022/06/17 12:30:10;;;;;;;10.48;3.97;;;25.70;75.90;;;;;;5022877;28;20065;-74
2022/06/17 12:32:50;;;;;;;5.63;3.25;;;25.90;75.60;;;;;;5023395;28;20046;-75
2022/06/17 12:35:41;;;;;;;7.93;3.08;;;26.10;74.30;;;;;;5027711;28;20037;-75
2022/06/17 12:38:30;;;;;;;8.63;3.47;;;26.30;72.50;;;;;;5019100;28;20041;-75
2022/06/17 12:41:13;;;;;;;6.35;2.72;;;26.40;71.40;;;;;;5025458;28;20137;-73
2022/06/17 12:44:09;;;;;;;5.28;2.50;;;26.50;71.00;;;;;;5021623;28;20468;-73
2022/06/17 12:46:47;;;;;;;4.88;2.42;;;26.60;70.70;;;;;;5020604;28;20045;-73
2022/06/17 12:55:07;;;;;;;6.95;3.05;;;26.60;67.80;;;;;;5020705;28;20053;-75
2022/06/17 12:57:41;;;;;;;10.38;3.45;;;26.50;65.70;;;;;;5021499;28;20515;-72
2022/06/17 13:00:16;;;;;;;8.65;3.17;;;26.40;65.70;;;;;;5022511;28;20049;-74
2022/06/17 13:02:50;;;;;;;10.73;3.58;;;26.30;65.30;;;;;;5021829;27;20121;-77
2022/06/17 13:05:36;;;;;;;6.70;3.35;;;26.30;65.00;;;;;;5020624;28;20130;-76
2022/06/17 13:08:34;;;;;;;9.18;3.75;;;26.30;65.20;;;;;;5019014;28;20718;-80
2022/06/17 13:11:15;;;;;;;6.25;3.45;;;26.10;66.10;;;;;;5020841;28;20052;-81
2022/06/17 13:13:59;;;;;;;7.60;3.38;;;26.00;65.80;;;;;;5020396;28;20045;-73
2022/06/17 13:16:45;;;;;;;7.35;3.33;;;25.90;66.50;;;;;;5018804;28;20034;-73
2022/06/17 13:19:35;;;;;;;13.77;3.60;;;25.80;67.00;;;;;;5024474;28;20354;-72
2022/06/17 13:22:04;;;;;;;10.07;3.80;;;25.80;66.50;;;;;;5018787;28;20117;-74
2022/06/17 13:24:56;;;;;;;5.88;3.30;;;25.70;66.90;;;;;;5027203;27;20121;-74
2022/06/17 13:27:25;;;;;;;8.25;3.65;;;25.60;67.50;;;;;;5024053;28;20053;-73
2022/06/17 13:30:03;;;;;;;8.68;3.40;;;25.60;67.50;;;;;;5023740;28;20037;-74